Time;durP1;ratioP1;P1;durP2;ratioP2;P2;SDS_P1;SDS_P2;PMS_P1;PMS_P2;Temp;Humidity;BMP_temperature;BMP_pressure;BME280_temperature;BME280_humidity;BME280_pressure;Samples;Min_cycle;Max_cycle;Signal;HPM_P1;HPM_P2
2022/02/02 00:08:57;;;;;;;11.13;2.33;;;8.60;99.90;;;;;;20758462;28;20045;-45
2022/02/02 00:19:05;;;;;;;17.45;2.75;;;8.60;99.90;;;;;;20754872;28;20029;-45
2022/02/02 00:29:19;;;;;;;8.30;2.30;;;8.80;99.90;;;;;;20761923;28;20095;-44
2022/02/02 00:39:21;;;;;;;13.63;2.30;;;8.70;99.90;;;;;;20758360;28;20404;-45
2022/02/02 00:49:21;;;;;;;13.82;2.50;;;8.60;99.90;;;;;;20750797;28;20671;-45
2022/02/02 00:59:24;;;;;;;8.02;1.60;;;8.50;99.90;;;;;;20769369;28;20179;-45
2022/02/02 01:19:35;;;;;;;8.20;2.75;;;8.40;99.90;;;;;;20758090;28;20567;-45
2022/02/02 01:29:36;;;;;;;11.90;2.45;;;8.30;99.90;;;;;;20767167;28;20045;-45
2022/02/02 01:39:37;;;;;;;8.83;2.20;;;8.30;99.90;;;;;;20762253;28;20050;-45
2022/02/02 01:59:58;;;;;;;8.13;1.45;;;8.10;99.90;;;;;;20765797;28;20053;-45
2022/02/02 02:09:59;;;;;;;10.52;1.70;;;8.10;99.90;;;;;;20759319;28;20042;-45
2022/02/02 02:20:00;;;;;;;14.15;2.00;;;8.20;99.90;;;;;;20753915;28;20442;-45
2022/02/02 02:30:09;;;;;;;6.15;1.90;;;8.20;99.90;;;;;;20751631;28;20041;-44
2022/02/02 02:55:46;;;;;;;14.60;1.67;;;8.30;99.90;;;;;;20765401;28;20048;-45
2022/02/02 03:02:13;;;;;;;20.33;2.22;;;8.40;99.90;;;;;;20769347;28;20693;-44
2022/02/02 05:55:44;;;;;;;4.07;1.17;;;8.30;99.90;;;;;;20759479;28;20056;-45
2022/02/02 06:05:44;;;;;;;16.20;1.83;;;8.30;99.90;;;;;;20753290;28;20060;-45
2022/02/02 06:15:47;;;;;;;5.50;0.98;;;8.20;99.90;;;;;;20765301;28;20041;-45
2022/02/02 06:25:48;;;;;;;7.13;1.20;;;8.10;99.90;;;;;;20770278;28;20054;-44
2022/02/02 06:35:53;;;;;;;14.27;1.88;;;8.00;99.90;;;;;;20765058;28;20077;-45
2022/02/02 06:45:56;;;;;;;8.73;2.25;;;7.90;99.90;;;;;;20767506;28;20045;-44
2022/02/02 07:06:58;;;;;;;5.68;1.45;;;7.80;99.90;;;;;;20752193;28;20045;-45
2022/02/02 07:37:49;;;;;;;6.45;1.92;;;7.50;99.90;;;;;;20758132;28;20045;-47
2022/02/02 07:48:01;;;;;;;7.82;1.77;;;7.60;99.90;;;;;;20764452;28;20095;-45
2022/02/02 07:58:04;;;;;;;10.88;1.48;;;7.50;99.90;;;;;;20761203;28;20032;-45
2022/02/02 08:08:25;;;;;;;8.43;1.55;;;7.50;99.90;;;;;;20759809;28;20602;-45
2022/02/02 08:18:26;;;;;;;11.65;1.42;;;7.50;99.90;;;;;;20760697;28;20042;-44
2022/02/02 08:28:28;;;;;;;6.70;1.20;;;7.50;99.90;;;;;;20774825;28;20042;-44
2022/02/02 08:48:30;;;;;;;9.07;1.80;;;7.70;99.90;;;;;;20779542;28;20061;-44
2022/02/02 09:08:33;;;;;;;7.35;1.13;;;7.90;99.90;;;;;;20797547;28;20054;-45
2022/02/02 09:39:21;;;;;;;16.23;2.72;;;8.70;99.90;;;;;;20809737;28;20516;-44
2022/02/02 09:49:28;;;;;;;6.95;1.50;;;9.00;99.90;;;;;;20792466;28;20047;-44
2022/02/02 09:59:51;;;;;;;8.77;1.30;;;9.20;99.90;;;;;;20801582;28;20080;-45
2022/02/02 10:20:29;;;;;;;11.73;1.80;;;9.50;99.90;;;;;;20784131;28;20030;-44
2022/02/02 10:30:31;;;;;;;2.92;1.00;;;9.70;99.90;;;;;;20791892;28;20056;-45
2022/02/02 10:40:45;;;;;;;5.85;1.30;;;9.80;99.90;;;;;;20825951;28;20151;-44
2022/02/02 10:51:01;;;;;;;4.75;1.00;;;9.90;99.90;;;;;;20827034;28;20132;-45
2022/02/02 11:11:06;;;;;;;13.35;2.33;;;10.60;99.90;;;;;;20835010;28;20059;-46
2022/02/02 11:21:15;;;;;;;5.18;1.35;;;10.50;99.90;;;;;;20838219;28;20042;-46
2022/02/02 11:31:18;;;;;;;8.43;1.42;;;10.20;99.90;;;;;;20826225;28;20128;-50
2022/02/02 11:51:43;;;;;;;3.15;0.70;;;11.40;99.90;;;;;;20840380;28;20784;-45
2022/02/02 12:01:45;;;;;;;7.25;1.13;;;11.40;99.90;;;;;;20831753;28;20068;-45
2022/02/02 13:03:00;;;;;;;7.72;0.98;;;13.90;99.90;;;;;;20804753;28;20069;-46
2022/02/02 13:13:11;;;;;;;2.60;0.63;;;14.00;99.90;;;;;;20801362;28;20057;-45
2022/02/02 13:23:25;;;;;;;7.25;1.20;;;14.20;99.90;;;;;;20792244;28;20041;-45
2022/02/02 13:33:36;;;;;;;6.22;1.73;;;14.70;99.90;;;;;;20788975;28;20117;-46
2022/02/02 13:43:52;;;;;;;3.97;0.60;;;14.90;99.90;;;;;;20825421;28;20087;-46
2022/02/02 13:54:17;;;;;;;6.55;0.93;;;14.70;99.90;;;;;;20805160;28;20056;-46
2022/02/02 14:35:13;;;;;;;5.47;1.20;;;12.60;99.90;;;;;;20842330;28;20219;-45
2022/02/02 14:45:17;;;;;;;6.45;1.13;;;12.20;99.90;;;;;;20851458;28;20133;-45
2022/02/02 16:07:30;;;;;;;8.50;1.15;;;9.90;99.90;;;;;;20841347;28;20492;-45
2022/02/02 16:38:07;;;;;;;4.03;0.93;;;9.60;99.90;;;;;;20841226;28;20045;-46
2022/02/02 16:48:09;;;;;;;5.13;0.90;;;9.50;99.90;;;;;;20862097;28;20119;-45
2022/02/02 17:39:09;;;;;;;7.63;1.10;;;9.30;99.90;;;;;;20836443;28;20171;-45
2022/02/02 18:20:25;;;;;;;4.65;1.90;;;9.30;99.90;;;;;;20823863;28;20077;-46
2022/02/02 18:41:52;;;;;;;13.70;2.13;;;9.30;99.90;;;;;;20823853;28;20129;-47
2022/02/02 20:03:43;;;;;;;9.18;4.18;;;9.00;99.90;;;;;;20840677;28;20084;-46
2022/02/02 20:13:44;;;;;;;9.97;4.10;;;9.10;99.90;;;;;;20843126;28;20050;-45
2022/02/02 20:23:48;;;;;;;13.30;4.95;;;9.00;99.90;;;;;;20839756;28;20064;-46
2022/02/02 20:33:49;;;;;;;17.40;6.20;;;9.10;99.90;;;;;;20851949;28;20045;-46
2022/02/02 20:43:57;;;;;;;15.57;6.47;;;9.10;99.90;;;;;;20848148;28;20079;-46
2022/02/02 21:04:44;;;;;;;19.63;6.00;;;9.10;99.90;;;;;;20755464;28;20053;-45
2022/02/02 21:14:56;;;;;;;16.70;5.60;;;9.00;99.90;;;;;;20768754;28;20038;-45
2022/02/02 21:25:19;;;;;;;13.95;4.97;;;9.10;99.90;;;;;;20789341;28;20116;-45
2022/02/02 21:35:20;;;;;;;13.68;5.28;;;9.00;99.90;;;;;;20788011;28;20034;-45
2022/02/02 21:45:22;;;;;;;11.82;4.53;;;9.10;99.90;;;;;;20778864;28;20057;-45
2022/02/02 21:55:22;;;;;;;10.27;3.95;;;9.10;99.90;;;;;;20779538;28;20405;-45
2022/02/02 22:05:23;;;;;;;11.02;4.50;;;9.10;99.90;;;;;;20758492;28;20474;-45
2022/02/02 22:15:28;;;;;;;7.47;3.33;;;9.00;99.90;;;;;;20767091;28;20064;-45
2022/02/02 22:25:29;;;;;;;9.48;3.20;;;8.90;99.90;;;;;;20791397;28;20041;-45
2022/02/02 22:35:29;;;;;;;13.75;3.60;;;8.90;99.90;;;;;;20791495;28;20033;-45
2022/02/02 22:45:32;;;;;;;10.50;2.90;;;8.80;99.90;;;;;;20725807;28;20560;-45
2022/02/02 22:55:33;;;;;;;15.35;4.75;;;8.80;99.90;;;;;;20717105;28;20489;-45
2022/02/02 23:05:44;;;;;;;13.13;3.67;;;8.70;99.90;;;;;;20723175;28;20050;-45
2022/02/02 23:16:08;;;;;;;11.18;5.10;;;8.70;99.90;;;;;;20717284;28;20042;-45
2022/02/02 23:26:10;;;;;;;9.90;4.45;;;8.70;99.90;;;;;;20711943;28;20103;-45
2022/02/02 23:36:12;;;;;;;12.05;4.43;;;8.70;99.90;;;;;;20705540;28;20529;-45
2022/02/02 23:46:19;;;;;;;10.73;4.28;;;8.70;99.90;;;;;;20779026;28;20037;-45
